Date,TemperatureHighF,TemperatureAvgF,TemperatureLowF,DewpointHighF,DewpointAvgF,DewpointLowF,HumidityHigh,HumidityAvg,HumidityLow,PressureMaxIn,PressureMinIn,WindSpeedMaxMPH,WindSpeedAvgMPH,GustSpeedMaxMPH,PrecipitationSumIn
2013-8-1,73.0,65.6,60.8,65.0,61.0,57.5,100,85,72,30.04,30.00,1,0,7,0.02
2013-8-2,60.3,59.5,58.9,60.3,59.5,58.9,100,100,99,30.13,30.03,0,0,5,0.02
2013-8-3,67.1,62.7,59.1,64.7,61.8,59.1,100,97,90,30.15,30.07,1,0,4,0.01
2013-8-4,74.4,65.6,58.9,65.7,62.4,58.9,100,90,74,30.08,29.96,1,0,6,0.00
2013-8-5,79.2,68.2,60.3,65.1,61.6,57.7,100,81,54,30.02,29.94,1,0,6,0.01
2013-8-6,79.5,68.2,58.7,63.5,59.7,55.6,97,75,55,30.01,29.93,1,0,5,0.00
2013-8-7,79.8,70.5,60.7,64.2,59.7,56.2,88,69,58,30.01,29.94,1,0,5,0.00
2013-8-8,79.5,68.0,60.3,67.1,61.6,57.6,100,81,63,30.03,29.93,1,0,6,0.00
2013-8-9,78.7,68.3,60.2,68.1,63.5,59.3,100,85,65,29.96,29.82,1,0,5,0.00
2013-8-10,78.2,69.7,65.0,68.4,63.6,60.1,90,81,68,29.99,29.85,1,0,5,0.00
2013-8-11,70.6,66.0,61.4,63.6,60.2,56.5,100,82,73,30.07,29.98,1,0,7,0.00
2013-8-12,75.8,66.3,61.8,67.3,60.8,57.2,90,83,68,30.07,30.01,1,0,6,0.00
2013-8-13,75.4,66.6,59.4,64.1,59.9,52.9,99,80,62,30.11,29.95,2,0,6,0.00
2013-8-14,63.8,62.7,62.2,54.5,54.0,53.0,76,73,68,29.95,29.93,0,0,3,0.00
2013-8-15,69.5,66.6,63.8,65.8,63.9,61.9,97,91,78,29.99,29.93,0,0,7,0.00
2013-8-16,74.2,67.9,63.4,68.0,64.0,60.5,94,88,77,30.02,29.97,1,0,5,0.02
2013-8-17,71.8,68.0,65.4,64.5,62.2,60.5,93,82,72,30.06,29.98,1,0,7,0.00
2013-8-18,69.3,64.4,61.7,62.5,60.1,58.8,94,86,75,30.12,30.05,0,0,6,0.00
2013-8-19,72.6,64.7,60.3,60.7,58.9,57.5,97,82,62,30.11,30.05,1,0,6,0.00
2013-8-20,76.0,63.8,56.2,61.2,57.6,51.7,98,82,58,30.18,30.10,1,0,6,0.00
2013-8-21,79.5,66.1,56.1,61.4,56.3,50.4,92,72,50,30.11,29.95,1,0,6,0.00
2013-8-22,80.9,69.1,59.8,61.7,57.4,53.2,91,68,47,29.97,29.80,1,0,5,0.00
2013-8-23,72.5,67.7,63.6,61.0,57.2,52.2,88,69,61,29.89,29.80,1,0,11,0.00
2013-8-24,72.2,63.8,59.0,63.5,60.2,57.3,100,89,67,29.91,29.87,2,0,10,0.03
2013-8-25,72.7,64.2,56.9,59.5,56.7,54.9,95,78,57,29.95,29.86,1,0,6,0.00
2013-8-26,72.1,64.9,60.8,63.9,59.4,55.0,100,83,65,29.92,29.85,1,0,7,0.01
2013-8-27,71.2,65.3,60.4,65.1,60.9,57.5,100,86,77,29.96,29.81,0,0,6,0.14
2013-8-28,71.5,64.8,60.8,66.4,63.2,60.8,100,95,82,29.92,29.83,0,0,3,0.29
2013-8-29,64.9,63.8,63.2,64.7,63.7,63.2,100,100,97,29.90,29.87,0,0,3,0.45
2013-8-30,67.6,60.3,42.4,64.9,59.6,42.4,100,97,83,30.18,29.96,1,0,6,0.06
2013-8-31,74.6,62.8,54.8,65.8,59.1,53.7,100,88,68,30.11,29.85,1,0,5,0.00